Time;durP1;ratioP1;P1;durP2;ratioP2;P2;SDS_P1;SDS_P2;PMS_P1;PMS_P2;Temp;Humidity;BMP_temperature;BMP_pressure;BME280_temperature;BME280_humidity;BME280_pressure;Samples;Min_cycle;Max_cycle;Signal;HPM_P1;HPM_P2
2022/04/16 00:01:24;;;;;;;0.77;0.40;;;;;;;27.52;28.31;97495.56;4923215;28;20046;-33
2022/04/16 00:03:50;;;;;;;1.13;0.52;;;;;;;27.52;28.08;97489.44;4924668;28;20031;-31
2022/04/16 00:06:15;;;;;;;1.27;0.63;;;;;;;27.53;28.27;97491.13;4925598;28;20035;-35
2022/04/16 00:08:41;;;;;;;2.38;0.50;;;;;;;27.52;28.00;97494.69;4926419;28;20044;-36
2022/04/16 00:11:07;;;;;;;3.15;0.50;;;;;;;27.52;28.14;97500.81;4924715;28;20019;-35
2022/04/16 00:13:32;;;;;;;1.35;0.43;;;;;;;27.52;28.14;97494.69;4924247;28;20032;-34
2022/04/16 00:15:58;;;;;;;2.05;0.68;;;;;;;27.52;28.10;97502.59;4926048;28;20061;-31
2022/04/16 00:18:23;;;;;;;2.40;0.55;;;;;;;27.52;28.16;97499.97;4925651;28;20110;-31
2022/04/16 00:20:49;;;;;;;1.17;0.60;;;;;;;27.51;28.21;97499.09;4923689;28;20054;-34
2022/04/16 00:23:16;;;;;;;2.38;0.32;;;;;;;27.51;28.21;97493.84;4927484;28;20024;-30
2022/04/16 00:25:42;;;;;;;2.03;0.40;;;;;;;27.51;28.16;97490.38;4926026;28;20125;-38
2022/04/16 00:28:08;;;;;;;2.88;0.52;;;;;;;27.51;28.29;97487.75;4924573;28;20035;-37
2022/04/16 00:30:37;;;;;;;1.52;0.43;;;;;;;27.51;28.25;97487.75;4928694;28;20857;-33
2022/04/16 00:33:05;;;;;;;0.88;0.30;;;;;;;27.50;28.24;97486.88;4927754;28;20660;-33
2022/04/16 00:35:30;;;;;;;1.77;0.50;;;;;;;27.51;28.19;97487.75;4888853;28;20848;-40
2022/04/16 00:37:55;;;;;;;1.35;0.70;;;;;;;27.52;28.27;97489.44;4889738;28;20043;-34
2022/04/16 00:40:21;;;;;;;3.28;0.60;;;;;;;27.50;28.19;97488.66;4887579;28;20040;-39
2022/04/16 00:42:47;;;;;;;1.45;0.60;;;;;;;27.51;28.17;97493.00;4889148;28;20577;-33
2022/04/16 00:45:12;;;;;;;1.20;0.47;;;;;;;27.52;28.14;97489.44;4888249;28;20077;-34
2022/04/16 00:47:38;;;;;;;0.90;0.30;;;;;;;27.51;28.19;97487.75;4888491;28;20122;-39
2022/04/16 00:50:04;;;;;;;5.25;0.63;;;;;;;27.51;28.12;97488.56;4903037;28;20032;-34
2022/04/16 00:52:29;;;;;;;2.78;0.38;;;;;;;27.51;28.14;97487.75;4888508;28;20040;-32
2022/04/16 00:54:55;;;;;;;1.48;0.40;;;;;;;27.52;28.27;97494.69;4891487;28;20050;-35
2022/04/16 00:57:21;;;;;;;0.73;0.40;;;;;;;27.50;28.10;97486.88;4887392;28;20159;-33
2022/04/16 00:59:46;;;;;;;1.00;0.50;;;;;;;27.52;28.21;97489.44;4888354;28;20034;-37
2022/04/16 01:02:12;;;;;;;1.20;0.40;;;;;;;27.51;28.13;97487.75;4909407;28;20562;-38
2022/04/16 01:04:38;;;;;;;0.35;0.22;;;;;;;27.51;28.17;97485.09;4889737;28;20153;-31
2022/04/16 01:07:06;;;;;;;1.90;0.50;;;;;;;27.51;28.13;97479.84;4888691;28;20031;-35
2022/04/16 01:09:32;;;;;;;2.28;0.30;;;;;;;27.50;28.32;97480.78;4891051;28;20050;-35
2022/04/16 01:11:57;;;;;;;1.98;0.70;;;;;;;27.50;28.21;97488.66;4888116;28;20054;-39
2022/04/16 01:14:25;;;;;;;2.60;0.40;;;;;;;27.51;28.20;97493.00;4889030;28;20313;-34
2022/04/16 01:16:52;;;;;;;0.60;0.32;;;;;;;27.50;28.22;97486.03;4892730;28;20058;-34
2022/04/16 01:19:19;;;;;;;0.90;0.35;;;;;;;27.51;28.21;97482.47;4888741;28;20063;-33
2022/04/16 01:21:46;;;;;;;1.98;0.50;;;;;;;27.50;28.22;97492.13;4890385;28;20034;-35
2022/04/16 01:24:12;;;;;;;0.35;0.28;;;;;;;27.50;28.20;97491.31;4893462;28;20031;-36
2022/04/16 01:26:38;;;;;;;1.10;0.68;;;;;;;27.50;28.29;97480.78;4892674;28;20031;-33
2022/04/16 01:29:03;;;;;;;0.73;0.40;;;;;;;27.50;28.20;97475.50;4894426;28;20031;-33
2022/04/16 01:31:30;;;;;;;1.25;0.43;;;;;;;27.48;28.26;97477.34;4890606;28;20036;-33
2022/04/16 01:33:57;;;;;;;0.75;0.38;;;;;;;27.48;28.30;97483.47;4901504;28;21327;-31
2022/04/16 01:36:24;;;;;;;0.50;0.50;;;;;;;27.50;28.29;97480.78;4927125;28;20043;-31
2022/04/16 01:38:49;;;;;;;1.17;0.55;;;;;;;27.48;28.14;97472.09;4932654;28;20034;-33
2022/04/16 01:41:15;;;;;;;0.93;0.40;;;;;;;27.49;28.15;97476.41;4925967;28;20254;-30
2022/04/16 01:43:40;;;;;;;0.93;0.40;;;;;;;27.49;28.40;97473.78;4927135;28;20047;-32
2022/04/16 01:46:06;;;;;;;1.88;0.50;;;;;;;27.48;28.21;97486.13;4932253;28;20044;-32
2022/04/16 01:48:31;;;;;;;1.60;0.55;;;;;;;27.49;28.15;97484.31;4927393;28;20522;-34
2022/04/16 01:50:58;;;;;;;1.48;0.40;;;;;;;27.48;28.03;97487.88;4927530;28;20745;-34
2022/04/16 01:53:23;;;;;;;1.15;0.30;;;;;;;27.47;28.30;97483.53;4943370;28;20493;-31
2022/04/16 01:55:49;;;;;;;0.88;0.40;;;;;;;27.48;28.41;97479.97;4928866;28;20039;-35
2022/04/16 01:58:15;;;;;;;1.60;0.50;;;;;;;27.47;28.19;97486.19;4930293;28;20035;-42
2022/04/16 02:00:40;;;;;;;2.08;0.50;;;;;;;27.47;28.23;97492.31;4927027;28;20443;-35
2022/04/16 02:03:08;;;;;;;1.33;0.40;;;;;;;27.47;28.38;97486.19;4929400;28;20035;-36
2022/04/16 02:05:34;;;;;;;0.68;0.32;;;;;;;27.47;28.41;97494.06;4936059;28;20024;-32
2022/04/16 02:07:59;;;;;;;0.63;0.40;;;;;;;27.47;28.24;97488.81;4935001;28;20038;-34
2022/04/16 02:10:24;;;;;;;2.13;0.40;;;;;;;27.47;28.23;97494.06;4932224;28;20028;-34
2022/04/16 02:12:50;;;;;;;0.52;0.43;;;;;;;27.47;28.22;97494.06;4929964;28;20039;-30
2022/04/16 02:15:15;;;;;;;1.15;0.40;;;;;;;27.46;28.38;97500.28;4923198;28;20034;-32
2022/04/16 02:17:41;;;;;;;0.93;0.38;;;;;;;27.46;28.38;97501.09;4925929;28;20046;-30
2022/04/16 02:20:09;;;;;;;0.82;0.40;;;;;;;27.45;28.31;97502.03;4926083;28;20462;-36
2022/04/16 02:22:45;;;;;;;0.30;0.30;;;;;;;27.46;28.19;97505.53;4930759;28;20051;-35
2022/04/16 02:25:10;;;;;;;0.68;0.40;;;;;;;27.45;28.28;97498.56;4928842;28;20150;-32
2022/04/16 02:27:36;;;;;;;0.52;0.40;;;;;;;27.46;28.36;97502.91;4926191;28;20117;-33
2022/04/16 02:30:05;;;;;;;5.43;0.30;;;;;;;27.45;28.37;97502.03;4920453;28;20137;-31
2022/04/16 02:32:31;;;;;;;0.57;0.30;;;;;;;27.45;28.21;97495.91;4925569;28;20588;-30
2022/04/16 02:34:56;;;;;;;0.60;0.30;;;;;;;27.45;28.31;97503.81;4924394;28;20035;-30
2022/04/16 02:37:22;;;;;;;0.68;0.40;;;;;;;27.45;28.35;97498.56;4923917;28;20122;-37
2022/04/16 02:39:47;;;;;;;0.45;0.30;;;;;;;27.44;28.26;97499.47;4941592;28;20050;-32
2022/04/16 02:42:13;;;;;;;0.85;0.40;;;;;;;27.44;28.25;97491.59;4925528;28;20233;-30
2022/04/16 02:47:22;;;;;;;1.05;0.30;;;;;;;27.43;28.27;97496.00;4928037;28;20047;-33
2022/04/16 02:49:48;;;;;;;0.57;0.38;;;;;;;27.44;28.47;97502.13;4927534;28;20023;-31
2022/04/16 02:52:13;;;;;;;2.20;0.60;;;;;;;27.37;28.44;97494.53;4922630;28;20535;-32
2022/04/16 02:54:38;;;;;;;1.98;0.45;;;;;;;27.43;28.27;97506.53;4923044;28;20036;-30
2022/04/16 02:57:04;;;;;;;0.30;0.30;;;;;;;27.43;28.33;97509.19;4920326;28;20038;-31
2022/04/16 02:59:30;;;;;;;2.00;0.28;;;;;;;27.43;28.34;97503.03;4928448;28;20031;-36
2022/04/16 03:01:55;;;;;;;0.60;0.30;;;;;;;27.43;28.37;97500.41;4944495;28;20054;-30
2022/04/16 03:04:21;;;;;;;0.45;0.20;;;;;;;27.43;28.30;97500.41;4930338;28;20031;-32
2022/04/16 03:06:47;;;;;;;0.55;0.40;;;;;;;27.42;28.36;97494.28;4930728;28;20602;-31
2022/04/16 03:09:12;;;;;;;1.17;0.47;;;;;;;27.42;28.31;97493.47;4931658;28;20028;-31
2022/04/16 03:11:38;;;;;;;0.55;0.30;;;;;;;27.42;28.40;97496.09;4926661;28;20032;-31
2022/04/16 03:17:31;;;;;;;1.55;0.47;;;;;;;27.41;28.35;97495.22;4929798;28;20709;-32
2022/04/16 03:19:32;;;;;;;0.90;0.30;;;;;;;27.41;28.20;97508.38;4928172;28;20061;-35
2022/04/16 03:21:58;;;;;;;0.32;0.30;;;;;;;27.41;28.34;97508.38;4929010;28;20538;-33
2022/04/16 03:24:23;;;;;;;0.50;0.30;;;;;;;27.41;28.39;97508.38;4928379;28;20441;-31
2022/04/16 03:26:48;;;;;;;1.75;0.43;;;;;;;27.41;28.42;97512.81;4931198;28;20042;-32
2022/04/16 03:29:14;;;;;;;0.38;0.30;;;;;;;27.41;28.45;97504.91;4927529;28;20031;-33
2022/04/16 03:31:40;;;;;;;1.45;0.30;;;;;;;27.41;28.34;97510.19;4930292;28;20028;-33
2022/04/16 03:34:05;;;;;;;0.80;0.47;;;;;;;27.41;28.26;97513.66;4928440;28;20057;-32
2022/04/16 03:36:32;;;;;;;0.65;0.40;;;;;;;27.40;28.23;97496.16;4930176;28;20102;-36
2022/04/16 03:38:57;;;;;;;2.90;0.43;;;;;;;27.41;28.34;97504.91;4926919;28;20043;-31
2022/04/16 03:41:23;;;;;;;0.45;0.22;;;;;;;27.38;28.26;97493.59;4929954;28;20027;-31
2022/04/16 03:43:48;;;;;;;0.60;0.35;;;;;;;27.37;28.26;97493.66;4932111;28;20035;-31
2022/04/16 03:46:13;;;;;;;0.35;0.30;;;;;;;27.39;28.39;97499.72;4929293;28;20043;-34
2022/04/16 03:48:39;;;;;;;0.43;0.40;;;;;;;27.38;28.26;97498.84;4928887;28;20042;-34
2022/04/16 03:51:04;;;;;;;0.55;0.30;;;;;;;27.38;28.27;97504.13;4926279;28;20035;-36
2022/04/16 03:53:30;;;;;;;0.10;0.10;;;;;;;27.37;28.33;97494.53;4925975;28;20031;-31
2022/04/16 04:01:24;;;;;;;0.40;0.40;;;;;;;27.35;28.43;97504.25;4926408;28;20086;-30
2022/04/16 04:03:50;;;;;;;0.17;0.17;;;;;;;27.37;28.40;97512.94;4944601;28;20027;-33
2022/04/16 04:06:15;;;;;;;0.45;0.25;;;;;;;27.38;28.32;97508.53;4928756;28;20031;-36
2022/04/16 04:08:41;;;;;;;0.73;0.25;;;;;;;27.37;28.16;97510.31;4926632;28;20038;-36
2022/04/16 04:11:06;;;;;;;0.63;0.30;;;;;;;27.37;28.26;97512.94;4923791;28;20371;-31
2022/04/16 04:13:32;;;;;;;0.20;0.20;;;;;;;27.36;28.41;97516.53;4929069;28;20090;-30
2022/04/16 04:15:57;;;;;;;0.88;0.30;;;;;;;27.35;28.38;97522.69;4928873;28;20161;-30
2022/04/16 04:18:24;;;;;;;0.95;0.40;;;;;;;27.37;28.31;97533.16;4927677;28;20690;-31
2022/04/16 04:20:50;;;;;;;0.55;0.30;;;;;;;27.36;28.33;97527.03;4924645;28;20051;-36
2022/04/16 04:23:16;;;;;;;0.30;0.30;;;;;;;27.36;28.36;97526.19;4922602;28;20051;-30
2022/04/16 04:25:41;;;;;;;0.47;0.30;;;;;;;27.36;28.43;97521.78;4941480;28;20059;-32
2022/04/16 04:28:07;;;;;;;1.48;0.30;;;;;;;27.35;28.27;97509.53;4930401;28;20042;-30
2022/04/16 04:30:33;;;;;;;0.40;0.30;;;;;;;27.35;28.35;97520.06;4929301;28;20577;-32
2022/04/16 04:32:58;;;;;;;0.20;0.20;;;;;;;27.35;28.41;97529.75;4929056;28;20042;-31
2022/04/16 04:35:24;;;;;;;0.30;0.20;;;;;;;27.36;28.22;97541.97;4928442;28;20024;-34
2022/04/16 04:37:50;;;;;;;0.30;0.22;;;;;;;27.35;28.43;97543.75;4928457;28;20031;-37
2022/04/16 04:40:15;;;;;;;0.20;0.20;;;;;;;27.35;28.39;97540.28;4925111;28;20050;-30
2022/04/16 04:42:40;;;;;;;0.30;0.30;;;;;;;27.34;28.33;97539.41;4929158;28;20038;-31
2022/04/16 04:45:13;;;;;;;0.55;0.20;;;;;;;27.35;28.37;97543.75;4930120;28;20903;-34
2022/04/16 04:47:38;;;;;;;0.47;0.20;;;;;;;27.34;28.30;97544.66;4928214;28;20679;-33
2022/04/16 04:50:05;;;;;;;0.30;0.30;;;;;;;27.34;28.45;97542.03;4930014;28;20050;-34
2022/04/16 04:52:30;;;;;;;0.57;0.47;;;;;;;27.33;28.28;97548.25;4930060;28;20019;-35
2022/04/16 04:55:00;;;;;;;0.45;0.20;;;;;;;27.33;28.54;97556.13;4929640;28;20539;-33
2022/04/16 04:57:25;;;;;;;0.80;0.30;;;;;;;27.33;28.39;97552.63;4931635;28;20036;-32
2022/04/16 04:59:51;;;;;;;0.98;0.32;;;;;;;27.34;28.45;97549.94;4942890;28;20031;-35
2022/04/16 05:02:16;;;;;;;0.30;0.28;;;;;;;27.33;28.31;97550.88;4930709;28;20651;-31
2022/04/16 05:04:42;;;;;;;0.20;0.20;;;;;;;27.33;28.34;97553.50;4921746;28;20058;-33
2022/04/16 05:07:07;;;;;;;0.85;0.30;;;;;;;27.32;28.35;97551.81;4938055;28;20031;-31
2022/04/16 05:09:33;;;;;;;0.20;0.20;;;;;;;27.33;28.33;97550.88;4926287;28;20027;-37
2022/04/16 05:11:59;;;;;;;2.20;0.40;;;;;;;27.32;28.43;97551.81;4920943;28;20063;-35
2022/04/16 05:14:24;;;;;;;1.67;0.30;;;;;;;27.33;28.33;97553.50;4925239;28;20034;-35
2022/04/16 05:16:49;;;;;;;0.80;0.30;;;;;;;27.33;28.40;97558.75;4924717;28;20042;-32
2022/04/16 05:19:15;;;;;;;0.47;0.30;;;;;;;27.33;28.38;97552.63;4924427;28;20148;-31
2022/04/16 05:21:41;;;;;;;1.13;0.25;;;;;;;27.31;28.25;97550.06;4927304;28;20513;-31
2022/04/16 05:24:06;;;;;;;0.52;0.30;;;;;;;27.31;28.35;97555.34;4927076;28;20040;-34
2022/04/16 05:26:32;;;;;;;0.50;0.30;;;;;;;27.31;28.44;97565.88;4921461;28;20039;-35
2022/04/16 05:28:58;;;;;;;0.55;0.35;;;;;;;27.30;28.35;97566.78;4925403;28;20031;-37
2022/04/16 05:31:26;;;;;;;0.30;0.20;;;;;;;27.30;28.36;97569.44;4922550;28;20032;-32
2022/04/16 05:36:36;;;;;;;1.25;0.28;;;;;;;27.26;28.44;97562.59;4920594;28;21118;-32
2022/04/16 05:39:01;;;;;;;0.30;0.20;;;;;;;27.31;28.35;97568.50;4923572;28;20031;-37
2022/04/16 05:41:27;;;;;;;0.22;0.22;;;;;;;27.31;28.32;97565.03;4924770;28;20058;-32
2022/04/16 05:43:53;;;;;;;0.20;0.20;;;;;;;27.31;28.31;97575.56;4924490;28;20091;-34
2022/04/16 05:46:18;;;;;;;0.20;0.20;;;;;;;27.31;28.34;97565.03;4923576;28;20031;-31
2022/04/16 05:48:44;;;;;;;0.15;0.10;;;;;;;27.30;28.35;97569.44;4928271;28;20066;-32
2022/04/16 05:51:10;;;;;;;0.20;0.17;;;;;;;27.31;28.44;97567.66;4926175;28;20035;-33
2022/04/16 05:53:35;;;;;;;0.90;0.30;;;;;;;27.31;28.19;97575.56;4927529;28;20066;-31
2022/04/16 05:56:00;;;;;;;0.20;0.20;;;;;;;27.30;28.41;97584.38;4929847;28;20095;-31
2022/04/16 05:58:26;;;;;;;0.30;0.30;;;;;;;27.30;28.41;97579.13;4939345;28;20035;-33
2022/04/16 06:00:52;;;;;;;0.40;0.20;;;;;;;27.30;28.64;97584.38;4924699;28;20266;-32
2022/04/16 06:03:17;;;;;;;0.25;0.25;;;;;;;27.30;28.34;97582.59;4925918;28;20038;-35
2022/04/16 06:05:43;;;;;;;0.30;0.30;;;;;;;27.29;28.44;97583.50;4926890;28;20035;-33
2022/04/16 06:08:08;;;;;;;0.20;0.20;;;;;;;27.30;28.43;97579.13;4927543;28;20027;-32
2022/04/16 06:10:36;;;;;;;0.35;0.13;;;;;;;27.30;28.33;97594.91;4928194;28;20035;-31
2022/04/16 06:13:01;;;;;;;0.40;0.30;;;;;;;27.30;28.37;97590.47;4929481;28;20042;-32
2022/04/16 06:15:27;;;;;;;0.40;0.30;;;;;;;27.30;28.25;97590.47;4920189;28;20035;-31
2022/04/16 06:17:52;;;;;;;0.43;0.30;;;;;;;27.30;28.43;97598.38;4922008;28;20737;-36
2022/04/16 06:20:17;;;;;;;0.20;0.20;;;;;;;27.29;28.44;97594.03;4925413;28;20549;-31
2022/04/16 06:22:43;;;;;;;0.20;0.20;;;;;;;27.29;28.34;97601.94;4923530;28;20027;-30
2022/04/16 06:25:09;;;;;;;1.80;0.43;;;;;;;27.29;28.21;97596.69;4918666;28;20036;-35
2022/04/16 06:27:40;;;;;;;1.30;0.30;;;;;;;27.29;28.21;97603.72;4922450;28;20091;-30
2022/04/16 06:30:09;;;;;;;0.22;0.22;;;;;;;27.29;28.34;97607.19;4920898;28;20098;-32
2022/04/16 06:32:34;;;;;;;1.52;0.50;;;;;;;27.29;28.31;97615.09;4924350;28;20042;-40
2022/04/16 06:35:01;;;;;;;3.17;0.50;;;;;;;27.27;28.37;97615.16;4923099;28;20031;-35
2022/04/16 06:37:27;;;;;;;2.03;0.65;;;;;;;27.27;28.38;97615.16;4923390;28;20028;-34
2022/04/16 06:39:52;;;;;;;2.17;0.70;;;;;;;27.27;28.33;97607.28;4918126;28;20083;-30
2022/04/16 06:42:17;;;;;;;4.57;1.10;;;;;;;27.27;28.16;97607.28;4919832;28;20882;-33
2022/04/16 06:44:43;;;;;;;12.65;1.15;;;;;;;27.27;28.38;97609.06;4923862;28;20035;-30
2022/04/16 06:47:08;;;;;;;4.43;1.35;;;;;;;27.27;28.33;97607.28;4925944;28;20110;-33
2022/04/16 06:49:33;;;;;;;4.25;1.80;;;;;;;27.27;28.42;97611.69;4917975;28;20664;-32
2022/04/16 06:51:59;;;;;;;6.05;1.50;;;;;;;27.27;28.39;97609.06;4919500;28;20027;-33
2022/04/16 06:54:24;;;;;;;9.85;2.20;;;;;;;27.26;28.45;97605.56;4929881;28;20038;-32
2022/04/16 06:56:50;;;;;;;9.57;1.92;;;;;;;27.27;28.53;97616.97;4932160;28;20402;-34
2022/04/16 06:59:15;;;;;;;7.30;1.85;;;;;;;27.26;28.37;97610.84;4928865;28;20038;-33
2022/04/16 07:01:40;;;;;;;8.43;2.28;;;;;;;27.26;28.37;97616.09;4927893;28;20514;-34
2022/04/16 07:04:06;;;;;;;5.57;2.20;;;;;;;27.26;28.49;97617.88;4931558;28;20032;-34
2022/04/16 07:06:31;;;;;;;6.40;2.20;;;;;;;27.26;28.51;97620.50;4932019;28;20035;-29
2022/04/16 07:08:56;;;;;;;6.28;2.05;;;;;;;27.26;28.44;97615.22;4931725;28;20718;-32
2022/04/16 07:11:22;;;;;;;7.57;2.17;;;;;;;27.26;28.60;97620.50;4931470;28;20027;-36
2022/04/16 07:13:47;;;;;;;7.00;2.45;;;;;;;27.26;28.50;97620.50;4930721;28;20821;-31
2022/04/16 07:16:13;;;;;;;7.60;2.45;;;;;;;27.26;28.50;97615.22;4934046;28;20046;-37
2022/04/16 07:18:38;;;;;;;5.88;1.95;;;;;;;27.26;28.57;97616.09;4932865;29;20499;-33
2022/04/16 07:21:03;;;;;;;6.55;1.98;;;;;;;27.26;28.40;97616.09;4933032;29;20036;-31
2022/04/16 07:23:29;;;;;;;4.32;2.10;;;;;;;27.26;28.58;97624.00;4930683;28;20082;-33
2022/04/16 07:25:56;;;;;;;6.68;2.05;;;;;;;27.27;28.64;97627.50;4924433;28;20031;-33
2022/04/16 07:28:21;;;;;;;6.47;2.28;;;;;;;27.27;28.55;97616.97;4925601;28;20761;-34
2022/04/16 07:30:50;;;;;;;12.00;2.40;;;;;;;27.27;28.64;97622.22;4923626;28;20061;-32
2022/04/16 07:33:16;;;;;;;6.97;2.20;;;;;;;27.27;28.53;97611.69;4924034;28;20050;-32
2022/04/16 07:35:41;;;;;;;6.18;2.45;;;;;;;27.28;28.54;97623.94;4924735;28;20135;-31
2022/04/16 07:38:07;;;;;;;6.90;2.25;;;;;;;27.27;28.68;97627.50;4922675;28;23134;-35
2022/04/16 07:40:34;;;;;;;5.97;2.28;;;;;;;27.27;28.65;97624.84;4924594;28;20031;-32
2022/04/16 07:42:59;;;;;;;5.53;1.80;;;;;;;27.28;28.65;97629.19;4922284;28;20168;-34
2022/04/16 07:45:25;;;;;;;5.32;2.28;;;;;;;27.28;28.59;97629.19;4922120;28;20031;-33
2022/04/16 07:47:50;;;;;;;5.25;2.08;;;;;;;27.29;28.64;97627.38;4921265;28;20699;-33
2022/04/16 07:50:16;;;;;;;6.15;2.17;;;;;;;27.28;28.66;97629.19;4922909;28;20039;-33
2022/04/16 07:52:42;;;;;;;7.28;2.35;;;;;;;27.27;28.68;97627.50;4924460;28;20162;-30
2022/04/16 07:55:08;;;;;;;5.05;2.40;;;;;;;27.27;28.61;97633.59;4924722;28;20111;-31
2022/04/16 07:57:33;;;;;;;5.32;2.40;;;;;;;27.27;28.55;97627.50;4923080;28;20121;-32
2022/04/16 07:59:59;;;;;;;3.80;2.05;;;;;;;27.26;28.57;97636.28;4923691;28;20652;-32
2022/04/16 08:02:24;;;;;;;6.90;2.13;;;;;;;27.27;28.74;97643.28;4923749;28;20036;-32
2022/04/16 08:04:49;;;;;;;3.75;1.80;;;;;;;27.27;28.69;97643.28;4923118;28;20481;-33
2022/04/16 08:07:15;;;;;;;5.55;2.05;;;;;;;27.26;28.67;97649.44;4925906;28;20034;-34
2022/04/16 08:09:40;;;;;;;4.85;1.73;;;;;;;27.27;28.77;97648.53;4927707;28;20592;-35
2022/04/16 08:12:06;;;;;;;7.15;2.33;;;;;;;27.27;28.71;97648.53;4920223;28;20769;-31
2022/04/16 08:14:31;;;;;;;5.40;2.03;;;;;;;27.26;28.80;97657.34;4938267;28;20055;-34
2022/04/16 08:16:57;;;;;;;5.95;2.30;;;;;;;27.27;28.83;97664.31;4922480;28;20565;-31
2022/04/16 08:19:23;;;;;;;4.00;1.90;;;;;;;27.28;28.74;97668.66;4918627;28;20494;-32
2022/04/16 08:21:48;;;;;;;4.00;1.95;;;;;;;27.28;28.81;97655.50;4920831;28;20036;-32
2022/04/16 08:24:22;;;;;;;4.30;1.92;;;;;;;27.28;28.64;97660.75;4922088;28;20122;-31
2022/04/16 08:26:48;;;;;;;4.80;2.00;;;;;;;27.27;28.88;97659.91;4919776;28;20043;-33
2022/04/16 08:29:13;;;;;;;6.45;2.28;;;;;;;27.28;28.79;97666.03;4923635;28;20059;-30
2022/04/16 08:31:38;;;;;;;9.40;2.55;;;;;;;27.29;28.73;97667.72;4927208;28;20032;-31
2022/04/16 08:34:04;;;;;;;8.68;4.05;;;;;;;27.21;26.94;97675.13;4924274;28;20042;-35
2022/04/16 08:36:29;;;;;;;9.55;4.47;;;;;;;27.05;26.07;97681.06;4919893;28;20650;-30
2022/04/16 08:38:55;;;;;;;5.28;4.25;;;;;;;26.81;25.27;97681.19;4918612;28;20035;-33
2022/04/16 08:41:20;;;;;;;6.65;3.95;;;;;;;26.55;24.88;97691.03;4926507;28;20560;-32
2022/04/16 08:43:45;;;;;;;5.00;3.70;;;;;;;26.30;25.09;97684.19;4924050;28;20035;-31
2022/04/16 08:46:11;;;;;;;7.45;3.20;;;;;;;26.14;25.45;97690.94;4915923;28;20039;-31
2022/04/16 08:48:36;;;;;;;8.77;3.40;;;;;;;26.04;25.87;97693.94;4920013;28;20079;-32
2022/04/16 08:51:02;;;;;;;8.85;3.22;;;;;;;26.00;25.92;97696.75;4922587;28;20031;-30
2022/04/16 08:53:27;;;;;;;6.18;3.10;;;;;;;25.97;25.92;97692.47;4921872;28;20050;-38
2022/04/16 08:55:52;;;;;;;7.40;2.92;;;;;;;25.98;26.10;97685.44;4916742;28;20048;-35
2022/04/16 08:58:18;;;;;;;4.53;2.67;;;;;;;26.00;26.34;97681.84;4918117;28;20027;-32
2022/04/16 09:00:43;;;;;;;5.97;2.85;;;;;;;26.00;26.46;97675.75;4922718;28;20024;-33
2022/04/16 09:03:09;;;;;;;3.60;2.40;;;;;;;26.06;26.55;97684.25;4920258;28;20038;-32
2022/04/16 09:05:34;;;;;;;6.07;2.47;;;;;;;26.12;26.65;97684.91;4916420;28;20043;-37
2022/04/16 09:08:02;;;;;;;8.13;2.72;;;;;;;26.14;26.60;97688.31;4921483;28;20085;-34
2022/04/16 09:10:28;;;;;;;9.75;3.65;;;;;;;26.18;26.80;97684.66;4922287;28;20034;-33
2022/04/16 09:12:55;;;;;;;11.70;3.47;;;;;;;26.24;26.76;97689.66;4917365;28;20031;-35
2022/04/16 09:15:21;;;;;;;11.55;4.07;;;;;;;26.25;26.96;97680.88;4923040;28;20054;-33
2022/04/16 09:18:02;;;;;;;38.58;5.55;;;;;;;26.31;26.96;97680.63;4920619;28;20039;-32
2022/04/16 09:20:38;;;;;;;35.33;6.07;;;;;;;26.37;26.87;97683.91;4924802;28;20091;-32
2022/04/16 09:23:20;;;;;;;27.40;5.68;;;;;;;26.40;26.98;97684.66;4928416;28;20039;-39
2022/04/16 09:25:46;;;;;;;14.10;4.55;;;;;;;26.44;26.99;97677.50;4928168;28;20047;-34
2022/04/16 09:28:17;;;;;;;20.33;4.07;;;;;;;26.46;27.07;97673.88;4929703;28;20537;-30
2022/04/16 09:30:53;;;;;;;16.58;3.53;;;;;;;26.51;27.00;97675.47;4934344;28;20045;-36
2022/04/16 09:33:19;;;;;;;14.57;3.58;;;;;;;26.53;27.15;97679.75;4932361;28;20035;-36
2022/04/16 09:35:46;;;;;;;14.88;4.00;;;;;;;26.56;27.11;97673.50;4929806;28;20094;-30
2022/04/16 09:38:17;;;;;;;11.85;3.53;;;;;;;26.58;27.11;97680.38;4931102;28;20082;-31
2022/04/16 09:40:46;;;;;;;11.82;3.50;;;;;;;26.61;27.32;97669.75;4926100;28;20094;-35
2022/04/16 09:43:11;;;;;;;10.15;3.47;;;;;;;26.64;27.25;97678.41;4930345;28;20035;-31
2022/04/16 09:45:40;;;;;;;10.02;3.17;;;;;;;26.67;27.24;97678.28;4929484;28;20521;-31
2022/04/16 09:48:12;;;;;;;10.35;3.38;;;;;;;26.69;27.20;97679.09;4931380;28;20502;-32
2022/04/16 09:50:38;;;;;;;10.05;3.42;;;;;;;26.71;27.30;97672.00;4930032;28;20039;-34
2022/04/16 09:53:03;;;;;;;10.52;3.53;;;;;;;26.72;27.25;97681.56;4929635;28;20039;-31
2022/04/16 09:55:29;;;;;;;7.43;2.92;;;;;;;26.74;27.31;97687.63;4927773;28;20027;-30
2022/04/16 09:57:58;;;;;;;9.52;3.35;;;;;;;26.75;27.32;97678.81;4927838;28;20031;-33
2022/04/16 10:00:24;;;;;;;10.55;3.20;;;;;;;26.76;27.26;97683.16;4927684;28;20032;-31
2022/04/16 10:02:50;;;;;;;16.40;3.97;;;;;;;26.77;27.27;97690.13;4930088;28;20036;-31
2022/04/16 10:05:15;;;;;;;9.52;2.85;;;;;;;26.79;27.48;97700.56;4931856;28;20024;-33
2022/04/16 10:07:43;;;;;;;9.75;3.85;;;;;;;26.80;27.45;97695.25;4928964;28;20025;-35
2022/04/16 10:10:17;;;;;;;8.65;3.47;;;;;;;26.81;27.46;97702.22;4929574;28;20090;-32
2022/04/16 10:13:05;;;;;;;9.07;2.88;;;;;;;26.83;27.45;97702.16;4931338;28;20139;-33
2022/04/16 10:15:51;;;;;;;8.80;3.30;;;;;;;26.84;27.42;97715.25;4935588;28;20047;-30
2022/04/16 10:18:17;;;;;;;9.90;3.00;;;;;;;26.85;27.49;97710.84;4944075;28;20701;-36
2022/04/16 10:20:51;;;;;;;6.35;2.90;;;;;;;26.85;27.50;97711.69;4931922;29;20027;-31
2022/04/16 10:23:36;;;;;;;7.57;2.50;;;;;;;26.85;27.63;97722.19;4930337;28;20054;-30
2022/04/16 10:26:11;;;;;;;6.97;2.70;;;;;;;26.86;27.43;97718.66;4934633;28;20110;-31
2022/04/16 10:28:49;;;;;;;6.13;2.72;;;;;;;26.87;27.62;97717.75;4938405;28;20581;-35
2022/04/16 10:31:33;;;;;;;5.53;2.40;;;;;;;26.87;27.50;97723.00;4923842;28;20090;-37
2022/04/16 10:34:05;;;;;;;4.70;2.45;;;;;;;26.89;27.51;97728.22;4920814;28;20042;-36
2022/04/16 10:36:32;;;;;;;5.68;2.47;;;;;;;26.91;27.53;97730.75;4926013;28;20481;-34
2022/04/16 10:38:58;;;;;;;9.40;2.45;;;;;;;26.91;27.60;97728.13;4930865;28;20087;-32
2022/04/16 10:41:25;;;;;;;7.50;2.78;;;;;;;26.91;27.64;97733.38;4929465;28;20552;-32
2022/04/16 10:44:00;;;;;;;10.98;2.50;;;;;;;26.92;27.66;97727.22;4928370;28;20926;-35
2022/04/16 10:46:45;;;;;;;10.25;2.53;;;;;;;26.92;27.54;97727.22;4930133;28;20081;-30
2022/04/16 10:49:11;;;;;;;9.80;2.38;;;;;;;26.93;27.45;97728.91;4929979;28;20518;-32
2022/04/16 10:51:37;;;;;;;6.45;2.58;;;;;;;26.92;27.58;97728.06;4929186;28;20130;-31
2022/04/16 10:54:13;;;;;;;7.45;2.45;;;;;;;26.92;27.55;97724.59;4928353;28;20046;-32
2022/04/16 10:56:39;;;;;;;15.27;3.15;;;;;;;26.93;27.62;97723.66;4929302;28;20031;-38
2022/04/16 10:59:05;;;;;;;8.63;2.80;;;;;;;26.92;27.61;97724.59;4933283;28;20431;-32
2022/04/16 11:01:30;;;;;;;5.93;2.38;;;;;;;26.93;27.58;97729.75;4929776;28;20103;-32
2022/04/16 11:03:56;;;;;;;8.40;2.58;;;;;;;26.93;27.70;97721.03;4932115;28;20035;-33
2022/04/16 11:06:32;;;;;;;7.32;2.45;;;;;;;26.94;27.79;97714.84;4929978;28;20103;-31
2022/04/16 11:08:58;;;;;;;5.47;2.35;;;;;;;26.94;27.65;97705.22;4925397;28;20031;-29
2022/04/16 11:11:23;;;;;;;10.57;2.58;;;;;;;26.94;27.69;97705.22;4924316;28;20023;-31
2022/04/16 11:13:48;;;;;;;8.23;2.50;;;;;;;26.96;28.02;97705.16;4924282;28;20695;-34
2022/04/16 11:16:23;;;;;;;11.05;2.58;;;;;;;26.98;27.87;97700.66;4932587;28;20044;-29
2022/04/16 11:18:48;;;;;;;7.63;1.83;;;;;;;27.00;28.04;97704.06;4928802;28;20036;-30
2022/04/16 11:21:13;;;;;;;5.10;2.10;;;;;;;27.02;28.04;97707.50;4931118;28;20102;-33
2022/04/16 11:23:41;;;;;;;6.93;2.30;;;;;;;27.03;27.93;97706.56;4931229;28;20024;-31
2022/04/16 11:34:32;;;;;;;6.47;2.05;;;;;;;27.08;27.95;97703.75;4924243;28;20799;-33
2022/04/16 11:36:58;;;;;;;4.65;2.15;;;;;;;27.09;28.20;97708.97;4925006;28;20046;-37
2022/04/16 11:39:34;;;;;;;7.82;2.17;;;;;;;27.10;28.10;97710.66;4926769;28;20079;-30
2022/04/16 11:42:02;;;;;;;5.95;2.30;;;;;;;27.12;28.16;97706.16;4927960;28;20047;-37
2022/04/16 11:44:50;;;;;;;10.13;2.40;;;;;;;27.13;28.21;97705.28;4930924;28;20037;-34
2022/04/16 11:47:20;;;;;;;8.35;2.53;;;;;;;27.14;28.23;97708.75;4923460;28;20046;-31
2022/04/16 11:49:55;;;;;;;8.40;2.85;;;;;;;27.16;28.18;97703.41;4918910;28;20042;-32
2022/04/16 11:52:24;;;;;;;4.68;2.20;;;;;;;27.17;28.28;97699.84;4921687;28;20035;-32